Time;durP1;ratioP1;P1;durP2;ratioP2;P2;SDS_P1;SDS_P2;PMS_P1;PMS_P2;Temp;Humidity;BMP_temperature;BMP_pressure;BME280_temperature;BME280_humidity;BME280_pressure;Samples;Min_cycle;Max_cycle;Signal;HPM_P1;HPM_P2
2023/08/11 00:00:08;;;;;;;2.67;1.20;;;23.80;96.70;;;;;;5065185;28;20052;-79
2023/08/11 00:02:40;;;;;;;3.72;1.50;;;23.60;96.70;;;;;;5065617;28;20057;-80
2023/08/11 00:05:08;;;;;;;4.38;1.50;;;23.60;96.70;;;;;;5065924;28;20051;-78
2023/08/11 00:07:37;;;;;;;2.55;1.75;;;23.70;96.70;;;;;;5067190;28;20040;-79
2023/08/11 00:10:07;;;;;;;4.95;1.65;;;23.70;96.70;;;;;;5065954;28;20046;-79
2023/08/11 00:12:35;;;;;;;3.50;1.50;;;23.70;96.70;;;;;;5066526;28;20407;-78
2023/08/11 00:15:04;;;;;;;6.65;2.42;;;23.80;96.70;;;;;;5064892;28;20110;-78
2023/08/11 00:17:33;;;;;;;3.85;1.30;;;23.70;96.70;;;;;;5064700;28;20135;-77
2023/08/11 00:20:05;;;;;;;3.70;1.55;;;23.80;96.70;;;;;;5064525;28;20048;-78
2023/08/11 00:22:34;;;;;;;2.55;1.50;;;23.70;96.70;;;;;;5064972;28;20045;-78
2023/08/11 00:25:02;;;;;;;3.47;1.67;;;23.70;96.70;;;;;;5066027;28;20053;-79
2023/08/11 00:27:30;;;;;;;3.33;1.48;;;23.80;96.70;;;;;;5064633;28;20053;-80
2023/08/11 00:29:59;;;;;;;6.88;1.58;;;23.70;96.70;;;;;;5064790;28;20592;-79
2023/08/11 00:32:28;;;;;;;3.65;1.52;;;23.60;96.70;;;;;;5064928;28;20092;-79
2023/08/11 00:34:57;;;;;;;4.05;1.70;;;23.50;96.70;;;;;;5045828;28;20186;-79
2023/08/11 00:37:26;;;;;;;3.33;1.33;;;23.50;96.70;;;;;;5064537;28;20037;-79
2023/08/11 00:39:55;;;;;;;4.18;1.67;;;23.40;96.70;;;;;;5065924;28;20098;-79
2023/08/11 00:42:23;;;;;;;4.18;1.48;;;23.30;96.70;;;;;;5064534;28;20044;-79
2023/08/11 00:44:52;;;;;;;3.58;1.50;;;23.30;96.70;;;;;;5077658;28;20147;-79
2023/08/11 00:47:20;;;;;;;1.92;1.13;;;23.20;96.70;;;;;;5064715;28;20094;-79
2023/08/11 00:49:49;;;;;;;4.60;1.63;;;23.20;96.70;;;;;;5065920;28;20498;-79
2023/08/11 00:52:18;;;;;;;4.15;1.38;;;23.10;96.70;;;;;;5048141;28;20046;-78
2023/08/11 00:54:48;;;;;;;5.75;1.35;;;23.10;96.70;;;;;;5066829;28;20045;-79
2023/08/11 00:57:16;;;;;;;3.78;1.20;;;23.00;96.70;;;;;;5064206;28;20085;-79
2023/08/11 00:59:46;;;;;;;2.65;1.40;;;23.00;96.70;;;;;;5047399;28;20098;-77
2023/08/11 01:02:14;;;;;;;4.50;1.52;;;23.00;96.70;;;;;;5064294;28;20045;-78
2023/08/11 01:04:42;;;;;;;3.97;1.40;;;23.10;96.70;;;;;;5064170;28;20048;-78
2023/08/11 01:07:22;;;;;;;2.30;1.20;;;23.00;96.70;;;;;;5065120;28;21261;-78
2023/08/11 01:10:01;;;;;;;3.20;1.27;;;23.10;96.70;;;;;;5063200;28;20775;-78
2023/08/11 01:12:38;;;;;;;2.75;1.42;;;23.10;96.70;;;;;;5059569;28;20420;-78
2023/08/11 01:15:16;;;;;;;2.10;1.45;;;22.90;96.70;;;;;;5056793;28;20573;-78
2023/08/11 01:17:47;;;;;;;2.83;1.38;;;23.00;96.70;;;;;;5064587;28;20049;-79
2023/08/11 01:20:16;;;;;;;3.38;1.52;;;23.00;96.70;;;;;;5064226;28;20138;-79
2023/08/11 01:22:46;;;;;;;3.83;1.10;;;23.00;96.70;;;;;;5063869;28;20535;-80
2023/08/11 01:25:16;;;;;;;3.88;1.73;;;23.00;96.70;;;;;;5057282;28;20098;-79
2023/08/11 01:27:46;;;;;;;3.22;1.38;;;23.00;96.70;;;;;;5063857;28;20041;-78
2023/08/11 01:30:16;;;;;;;3.10;1.50;;;23.00;96.70;;;;;;5065615;28;20106;-78
2023/08/11 01:32:45;;;;;;;2.95;1.40;;;23.00;96.70;;;;;;5064314;28;20053;-78
2023/08/11 01:35:14;;;;;;;5.70;1.50;;;22.90;96.70;;;;;;5063219;28;20421;-79
2023/08/11 01:37:53;;;;;;;2.92;1.27;;;23.00;96.70;;;;;;5064249;28;20657;-78
2023/08/11 01:40:22;;;;;;;2.97;1.83;;;22.90;96.70;;;;;;5064412;28;20098;-78
2023/08/11 01:42:51;;;;;;;2.47;1.65;;;22.90;96.70;;;;;;5063906;28;20050;-77
2023/08/11 01:45:22;;;;;;;2.20;1.40;;;22.80;96.70;;;;;;5063716;28;20148;-78
2023/08/11 01:47:51;;;;;;;2.75;1.35;;;22.70;96.70;;;;;;5063626;28;20550;-79
2023/08/11 01:50:21;;;;;;;4.63;1.50;;;22.70;96.70;;;;;;5063566;28;20049;-78
2023/08/11 01:52:54;;;;;;;4.13;1.48;;;22.70;96.70;;;;;;5064014;28;20064;-78
2023/08/11 01:55:24;;;;;;;3.88;1.70;;;22.70;96.70;;;;;;5063194;28;20048;-78
2023/08/11 01:57:53;;;;;;;2.67;1.65;;;22.70;96.70;;;;;;5062654;28;20056;-78
2023/08/11 02:00:28;;;;;;;3.05;1.55;;;22.70;96.70;;;;;;5063350;28;20063;-78
2023/08/11 02:02:57;;;;;;;3.47;1.48;;;22.70;96.70;;;;;;5046949;28;20556;-79
2023/08/11 02:05:26;;;;;;;3.13;1.38;;;22.60;96.70;;;;;;5062669;28;20506;-78
2023/08/11 02:07:55;;;;;;;2.05;1.60;;;22.60;96.70;;;;;;5064890;28;20040;-80
2023/08/11 02:10:25;;;;;;;2.78;1.80;;;22.60;96.70;;;;;;5056622;28;20102;-72
2023/08/11 02:12:53;;;;;;;2.10;1.50;;;22.60;96.70;;;;;;5046709;28;20053;-72
2023/08/11 02:15:22;;;;;;;5.28;1.95;;;22.60;96.70;;;;;;5062441;28;20041;-72
2023/08/11 02:17:50;;;;;;;5.05;1.60;;;22.60;96.70;;;;;;5063082;28;20135;-72
2023/08/11 02:20:21;;;;;;;2.22;1.50;;;22.50;96.70;;;;;;5064206;28;20048;-73
2023/08/11 02:22:51;;;;;;;3.53;1.45;;;22.60;96.70;;;;;;5062778;28;20048;-72
2023/08/11 02:25:27;;;;;;;3.75;1.58;;;22.60;96.70;;;;;;5054964;28;20459;-72
2023/08/11 02:27:57;;;;;;;3.20;1.58;;;22.50;96.70;;;;;;5064566;28;20051;-72
2023/08/11 02:30:29;;;;;;;5.57;1.60;;;22.30;96.70;;;;;;5062327;28;20094;-72
2023/08/11 02:32:59;;;;;;;3.00;2.00;;;22.20;96.70;;;;;;5064430;28;20406;-72
2023/08/11 02:35:27;;;;;;;4.20;1.73;;;22.30;96.70;;;;;;5062636;28;20132;-72
2023/08/11 02:37:55;;;;;;;4.07;1.48;;;22.40;96.70;;;;;;5046455;28;20048;-72
2023/08/11 02:40:24;;;;;;;2.55;1.65;;;22.40;96.70;;;;;;5046698;28;20422;-72
2023/08/11 02:42:54;;;;;;;5.57;1.80;;;22.30;96.70;;;;;;5062366;28;20055;-72
2023/08/11 02:45:25;;;;;;;2.70;1.60;;;22.30;96.70;;;;;;5062475;28;20048;-72
2023/08/11 02:47:55;;;;;;;3.10;1.52;;;22.40;96.70;;;;;;5064151;28;20063;-72
2023/08/11 02:50:23;;;;;;;2.30;1.38;;;22.40;96.70;;;;;;5061657;28;20119;-72
2023/08/11 02:52:51;;;;;;;3.53;1.80;;;22.40;96.70;;;;;;5062898;28;20451;-73
2023/08/11 02:55:20;;;;;;;3.28;1.67;;;22.30;96.70;;;;;;5068584;28;20044;-72
2023/08/11 02:57:48;;;;;;;4.40;1.98;;;22.20;96.70;;;;;;5062187;28;20045;-72
2023/08/11 03:00:17;;;;;;;2.72;1.42;;;22.20;96.70;;;;;;5063583;28;20048;-72
2023/08/11 03:02:47;;;;;;;5.75;1.65;;;22.20;96.70;;;;;;5045006;28;20549;-72
2023/08/11 03:05:16;;;;;;;3.70;1.80;;;22.30;96.70;;;;;;5058603;28;21191;-72
2023/08/11 03:07:50;;;;;;;4.22;1.35;;;22.20;96.70;;;;;;5046707;28;20052;-72
2023/08/11 03:10:18;;;;;;;2.33;1.30;;;22.10;96.70;;;;;;5062182;28;20401;-72
2023/08/11 03:12:47;;;;;;;2.95;1.65;;;22.20;96.70;;;;;;5062672;28;20454;-72
2023/08/11 03:15:15;;;;;;;2.28;1.25;;;22.20;96.70;;;;;;5067563;28;20055;-72
2023/08/11 03:17:46;;;;;;;2.55;1.40;;;22.20;96.70;;;;;;5061605;28;20045;-73
2023/08/11 03:20:15;;;;;;;1.95;1.30;;;22.20;96.70;;;;;;5061873;28;20052;-72
2023/08/11 03:22:45;;;;;;;2.60;1.67;;;22.20;96.70;;;;;;5059451;28;20047;-72
2023/08/11 03:25:18;;;;;;;4.18;1.88;;;22.20;96.70;;;;;;5045939;28;20049;-72
2023/08/11 03:27:48;;;;;;;4.00;1.70;;;22.10;96.70;;;;;;5061747;28;20571;-72
2023/08/11 03:30:21;;;;;;;2.63;1.35;;;22.10;96.70;;;;;;5065823;28;20128;-71
2023/08/11 03:32:55;;;;;;;5.75;1.70;;;22.00;96.70;;;;;;5065907;28;20534;-72
2023/08/11 03:35:36;;;;;;;2.60;1.50;;;22.00;96.70;;;;;;5064686;28;20044;-72
2023/08/11 03:38:05;;;;;;;2.42;1.60;;;22.00;96.70;;;;;;5057842;28;20419;-71
2023/08/11 03:40:34;;;;;;;2.08;1.13;;;21.90;96.70;;;;;;5065843;28;20051;-72
2023/08/11 03:43:03;;;;;;;2.90;1.20;;;21.80;96.70;;;;;;5047116;28;20140;-72
2023/08/11 03:45:35;;;;;;;4.65;1.50;;;21.80;96.70;;;;;;5065638;28;20506;-72
2023/08/11 03:48:10;;;;;;;5.22;2.13;;;21.90;96.70;;;;;;5065238;28;20131;-72
2023/08/11 03:50:39;;;;;;;2.50;1.40;;;22.00;96.70;;;;;;5065367;28;20052;-72
2023/08/11 03:53:07;;;;;;;3.60;1.55;;;21.90;96.70;;;;;;5045647;28;20041;-72
2023/08/11 03:55:36;;;;;;;3.72;1.58;;;21.90;96.70;;;;;;5065874;28;20056;-72
2023/08/11 03:58:06;;;;;;;2.45;1.63;;;21.90;96.70;;;;;;5065071;28;20414;-72
2023/08/11 04:00:36;;;;;;;2.45;1.33;;;21.90;96.70;;;;;;5065416;28;20060;-71
2023/08/11 04:03:10;;;;;;;2.80;1.48;;;22.00;96.70;;;;;;5058409;28;20497;-71
2023/08/11 04:05:39;;;;;;;7.55;1.65;;;22.00;96.70;;;;;;5066205;28;20048;-72
2023/08/11 04:08:07;;;;;;;3.20;1.42;;;21.90;96.70;;;;;;5065535;28;20144;-71
2023/08/11 04:10:35;;;;;;;2.63;1.42;;;21.80;96.70;;;;;;5048463;28;20131;-71
2023/08/11 04:13:03;;;;;;;2.40;1.30;;;21.80;96.70;;;;;;5064688;28;20037;-75
2023/08/11 04:15:32;;;;;;;3.70;1.48;;;21.90;96.70;;;;;;5065865;28;20118;-72
2023/08/11 04:18:00;;;;;;;2.20;1.30;;;21.90;96.70;;;;;;5064961;28;20537;-71
2023/08/11 04:20:30;;;;;;;2.58;1.52;;;21.80;96.70;;;;;;5065175;28;20516;-72
2023/08/11 04:22:58;;;;;;;2.67;1.35;;;21.80;96.70;;;;;;5067046;28;20504;-72
2023/08/11 04:25:26;;;;;;;4.10;1.50;;;21.80;96.70;;;;;;5066357;28;20045;-72
2023/08/11 04:27:55;;;;;;;2.78;1.38;;;21.90;96.70;;;;;;5063076;28;20045;-72
2023/08/11 04:30:24;;;;;;;4.90;1.70;;;21.80;96.70;;;;;;5048684;28;20048;-73
2023/08/11 04:32:52;;;;;;;5.47;1.88;;;21.80;96.70;;;;;;5064733;28;20044;-71
2023/08/11 04:35:20;;;;;;;4.20;1.60;;;21.70;96.70;;;;;;5064975;28;20056;-72
2023/08/11 04:37:51;;;;;;;5.93;1.70;;;21.70;96.70;;;;;;5081701;28;20041;-72
2023/08/11 04:40:20;;;;;;;5.28;1.90;;;21.70;96.70;;;;;;5063718;28;20052;-72
2023/08/11 04:42:50;;;;;;;3.65;1.80;;;21.70;96.70;;;;;;5064358;28;20060;-72
2023/08/11 04:45:23;;;;;;;4.25;2.08;;;21.70;96.70;;;;;;5048866;28;20102;-72
2023/08/11 04:47:51;;;;;;;7.85;5.75;;;21.70;96.70;;;;;;5066187;28;20501;-72
2023/08/11 04:50:20;;;;;;;10.90;8.45;;;21.70;96.70;;;;;;5065457;28;20060;-71
2023/08/11 04:52:55;;;;;;;8.25;6.10;;;21.70;96.70;;;;;;5074720;28;20040;-72
2023/08/11 04:55:23;;;;;;;5.50;3.83;;;21.70;96.70;;;;;;5066406;28;20044;-72
2023/08/11 04:57:51;;;;;;;12.32;9.98;;;21.60;96.70;;;;;;5046417;28;20040;-71
2023/08/11 05:00:20;;;;;;;11.52;7.85;;;21.60;96.70;;;;;;5064260;28;20413;-72
2023/08/11 05:02:48;;;;;;;10.00;4.75;;;21.70;96.70;;;;;;5066283;28;20872;-72
2023/08/11 05:05:17;;;;;;;8.20;3.65;;;21.60;96.70;;;;;;5063889;28;20056;-72
2023/08/11 05:07:45;;;;;;;6.82;3.65;;;21.60;96.70;;;;;;5064752;28;20040;-72
2023/08/11 05:10:15;;;;;;;5.78;2.50;;;21.70;96.70;;;;;;5065579;28;20044;-72
2023/08/11 05:12:44;;;;;;;3.72;2.10;;;21.70;96.70;;;;;;5063883;28;20074;-72
2023/08/11 05:15:12;;;;;;;4.05;1.95;;;21.80;96.70;;;;;;5064112;28;20152;-72
2023/08/11 05:17:40;;;;;;;4.78;2.08;;;21.80;96.70;;;;;;5063652;28;20044;-72
2023/08/11 05:20:09;;;;;;;4.85;2.05;;;21.80;96.70;;;;;;5063747;28;20071;-72
2023/08/11 05:22:37;;;;;;;4.05;2.17;;;21.80;96.70;;;;;;5065255;28;20056;-73
2023/08/11 05:25:06;;;;;;;5.15;2.33;;;21.80;96.70;;;;;;5063819;28;20044;-73
2023/08/11 05:27:36;;;;;;;7.47;2.53;;;21.80;96.70;;;;;;5047105;28;20055;-73
2023/08/11 05:30:04;;;;;;;4.47;2.17;;;21.80;96.70;;;;;;5048905;28;20040;-72
2023/08/11 05:32:32;;;;;;;3.92;2.28;;;21.80;96.70;;;;;;5054979;28;20064;-72
2023/08/11 05:35:00;;;;;;;4.50;2.50;;;21.90;96.70;;;;;;5063660;28;20563;-72
2023/08/11 05:37:28;;;;;;;5.05;2.50;;;21.90;96.70;;;;;;5063790;28;20048;-72
2023/08/11 05:39:56;;;;;;;3.75;2.88;;;21.90;96.70;;;;;;5064675;28;20060;-72
2023/08/11 05:42:24;;;;;;;6.82;4.45;;;22.00;96.70;;;;;;5063604;28;20502;-72
2023/08/11 05:44:53;;;;;;;8.23;4.13;;;22.00;96.70;;;;;;5063935;28;20510;-73
2023/08/11 05:47:21;;;;;;;7.55;4.38;;;22.00;96.70;;;;;;5064994;28;20638;-72
2023/08/11 05:49:51;;;;;;;10.73;5.07;;;22.00;96.70;;;;;;5063161;28;20094;-73
2023/08/11 05:52:19;;;;;;;8.32;4.35;;;22.10;96.70;;;;;;5065017;28;20119;-73
2023/08/11 05:54:47;;;;;;;7.35;3.75;;;22.10;96.70;;;;;;5043378;28;20584;-72
2023/08/11 05:57:15;;;;;;;7.03;4.15;;;22.20;96.70;;;;;;5064103;28;20040;-73
2023/08/11 05:59:43;;;;;;;5.20;3.20;;;22.30;96.70;;;;;;5063121;28;20056;-73
2023/08/11 06:02:12;;;;;;;6.82;3.33;;;22.40;96.70;;;;;;5064932;28;20055;-73
2023/08/11 06:04:42;;;;;;;5.68;3.00;;;22.40;96.70;;;;;;5060756;28;20486;-73
2023/08/11 06:07:10;;;;;;;5.68;2.80;;;22.50;96.70;;;;;;5065221;28;20092;-73
2023/08/11 06:09:39;;;;;;;6.75;2.95;;;22.50;96.70;;;;;;5064371;28;20040;-72
2023/08/11 06:12:07;;;;;;;5.20;3.00;;;22.60;96.70;;;;;;5064443;28;20071;-73
2023/08/11 06:14:35;;;;;;;5.72;2.70;;;22.60;96.70;;;;;;5063914;28;20526;-73
2023/08/11 06:17:03;;;;;;;5.20;2.83;;;22.70;96.70;;;;;;5059997;28;20512;-73
2023/08/11 06:19:32;;;;;;;4.13;2.63;;;22.70;96.70;;;;;;5062555;28;20048;-72
2023/08/11 06:22:00;;;;;;;7.80;2.65;;;22.80;96.70;;;;;;5064271;28;20490;-72
2023/08/11 06:24:29;;;;;;;5.63;2.22;;;22.90;96.70;;;;;;5063560;28;20041;-72
2023/08/11 06:26:57;;;;;;;6.50;2.08;;;22.90;96.70;;;;;;5064167;28;20590;-73
2023/08/11 06:29:24;;;;;;;4.63;1.92;;;23.00;96.70;;;;;;5064014;28;20044;-73
2023/08/11 06:31:52;;;;;;;6.75;1.92;;;23.00;96.70;;;;;;5062058;28;20048;-73
2023/08/11 06:34:21;;;;;;;7.10;1.83;;;23.00;96.70;;;;;;5062356;28;20041;-73
2023/08/11 06:36:50;;;;;;;4.80;2.20;;;23.00;96.70;;;;;;5062392;28;20040;-73
2023/08/11 06:39:19;;;;;;;5.07;1.70;;;23.10;96.70;;;;;;5062422;28;20040;-72
2023/08/11 06:41:47;;;;;;;5.20;1.80;;;23.30;96.70;;;;;;5064274;28;20187;-73
2023/08/11 06:44:14;;;;;;;4.50;1.77;;;23.30;96.70;;;;;;5045180;28;20044;-72
2023/08/11 06:46:42;;;;;;;6.22;1.98;;;23.30;96.70;;;;;;5060363;28;20049;-73
2023/08/11 06:49:10;;;;;;;8.30;1.65;;;23.30;96.70;;;;;;5063717;28;20996;-72
2023/08/11 06:51:38;;;;;;;5.50;1.95;;;23.40;96.70;;;;;;5060286;28;20127;-72
2023/08/11 06:54:07;;;;;;;3.97;1.80;;;23.40;96.70;;;;;;5061973;28;20047;-72
2023/08/11 06:56:36;;;;;;;2.83;1.88;;;23.40;96.70;;;;;;5062140;28;20135;-74
2023/08/11 06:59:04;;;;;;;5.45;1.77;;;23.40;96.70;;;;;;5061289;28;20036;-73
2023/08/11 07:01:32;;;;;;;8.85;2.30;;;23.50;96.70;;;;;;5061708;28;20049;-73
2023/08/11 07:04:00;;;;;;;3.25;1.90;;;23.50;96.70;;;;;;5064011;28;20048;-74
2023/08/11 07:06:29;;;;;;;6.07;1.90;;;23.50;96.70;;;;;;5062847;28;20491;-73
2023/08/11 07:09:08;;;;;;;6.22;1.80;;;23.60;96.70;;;;;;5063967;28;20044;-74
2023/08/11 07:11:36;;;;;;;4.18;1.90;;;23.70;96.70;;;;;;5045902;28;20583;-73
2023/08/11 07:14:07;;;;;;;5.40;1.52;;;23.80;96.70;;;;;;5062966;28;20044;-74
2023/08/11 07:16:35;;;;;;;6.68;1.88;;;23.80;96.70;;;;;;5063691;28;20037;-74
2023/08/11 07:19:04;;;;;;;3.05;1.65;;;24.00;96.70;;;;;;5061865;28;20051;-75
2023/08/11 07:21:32;;;;;;;7.70;1.80;;;24.00;96.70;;;;;;5061808;28;20411;-74
2023/08/11 07:24:00;;;;;;;4.93;1.98;;;24.10;96.70;;;;;;5061005;28;20040;-75
2023/08/11 07:26:30;;;;;;;4.45;1.60;;;24.10;96.70;;;;;;5066222;28;20047;-75
2023/08/11 07:28:58;;;;;;;7.72;1.85;;;24.20;96.70;;;;;;5061669;28;20160;-75
2023/08/11 07:31:27;;;;;;;5.22;1.58;;;24.30;96.70;;;;;;5058642;28;20386;-75
2023/08/11 07:33:55;;;;;;;2.15;1.42;;;24.40;96.70;;;;;;5044767;28;20151;-75
2023/08/11 07:36:23;;;;;;;5.38;2.10;;;24.40;96.70;;;;;;5047803;28;20041;-75
2023/08/11 07:38:52;;;;;;;5.50;1.65;;;24.50;96.70;;;;;;5061863;28;20055;-77
2023/08/11 07:41:26;;;;;;;3.80;1.80;;;24.50;96.70;;;;;;5063015;28;20072;-75
2023/08/11 07:43:56;;;;;;;3.83;1.70;;;24.60;96.70;;;;;;5061214;28;20047;-76
2023/08/11 07:46:24;;;;;;;4.03;1.52;;;24.70;96.70;;;;;;5042419;28;20144;-75
2023/08/11 07:48:53;;;;;;;5.13;2.13;;;24.80;96.70;;;;;;5063437;28;20490;-75
2023/08/11 07:51:21;;;;;;;4.90;1.60;;;24.90;96.70;;;;;;5063522;28;20048;-74
2023/08/11 07:53:51;;;;;;;4.85;1.70;;;24.90;96.70;;;;;;5062715;28;20047;-74
2023/08/11 07:56:19;;;;;;;7.20;1.60;;;24.90;96.70;;;;;;5062949;28;20135;-76
2023/08/11 07:58:52;;;;;;;3.80;1.50;;;25.00;96.70;;;;;;5077593;28;20506;-76
2023/08/11 08:01:23;;;;;;;3.33;1.67;;;25.20;96.70;;;;;;5059841;28;20115;-75
2023/08/11 08:03:53;;;;;;;3.75;1.70;;;25.30;96.70;;;;;;5057659;28;20041;-76
2023/08/11 08:06:22;;;;;;;6.53;1.90;;;25.40;96.70;;;;;;5059580;28;20094;-75
2023/08/11 08:08:50;;;;;;;4.20;1.60;;;25.50;96.70;;;;;;5060865;28;20048;-75
2023/08/11 08:11:19;;;;;;;2.83;1.48;;;25.60;96.70;;;;;;5059432;28;20536;-76
2023/08/11 08:13:47;;;;;;;3.17;1.38;;;25.60;96.70;;;;;;5061134;28;20032;-75
2023/08/11 08:16:16;;;;;;;4.63;1.70;;;25.60;96.70;;;;;;5065385;28;20131;-76
2023/08/11 08:18:46;;;;;;;5.88;1.60;;;25.80;96.70;;;;;;5065203;28;20067;-76
2023/08/11 08:21:15;;;;;;;5.95;1.70;;;25.80;96.70;;;;;;5065479;28;20040;-76
2023/08/11 08:23:44;;;;;;;2.95;1.50;;;26.00;96.70;;;;;;5048139;28;20045;-76
2023/08/11 08:26:12;;;;;;;2.85;1.60;;;26.00;96.70;;;;;;5065484;28;20044;-76
2023/08/11 08:28:41;;;;;;;3.28;1.65;;;26.10;96.70;;;;;;5064455;28;20044;-76
2023/08/11 08:31:09;;;;;;;3.95;1.35;;;26.10;96.70;;;;;;5048413;28;20212;-77
2023/08/11 08:33:38;;;;;;;2.75;1.60;;;26.20;96.70;;;;;;5064779;28;20048;-77
2023/08/11 08:36:08;;;;;;;3.80;2.13;;;26.40;96.70;;;;;;5063744;28;20052;-77
2023/08/11 08:38:36;;;;;;;3.72;1.45;;;26.50;96.70;;;;;;5065582;28;20114;-76
2023/08/11 08:41:09;;;;;;;2.35;1.55;;;26.70;96.70;;;;;;5065726;28;20051;-77
2023/08/11 08:43:37;;;;;;;7.20;1.77;;;26.80;96.70;;;;;;5063590;28;20045;-76
2023/08/11 08:46:08;;;;;;;6.43;2.00;;;26.80;96.70;;;;;;5063422;28;20595;-77
2023/08/11 08:48:43;;;;;;;5.30;1.48;;;26.80;96.70;;;;;;5064762;28;20040;-77
2023/08/11 08:51:13;;;;;;;5.40;1.47;;;26.80;96.70;;;;;;5064965;28;20445;-77
2023/08/11 08:53:42;;;;;;;4.82;1.63;;;26.80;96.70;;;;;;5048180;28;20148;-76
2023/08/11 08:56:11;;;;;;;4.65;1.98;;;27.00;96.70;;;;;;5065231;28;20041;-77
2023/08/11 08:58:41;;;;;;;5.95;1.65;;;27.30;96.70;;;;;;5065007;28;20052;-77
2023/08/11 09:01:12;;;;;;;4.80;1.73;;;27.40;96.70;;;;;;5064214;28;20990;-77
2023/08/11 09:03:41;;;;;;;4.35;1.58;;;27.30;96.70;;;;;;5065741;28;20040;-78
2023/08/11 09:06:10;;;;;;;4.25;1.60;;;27.40;96.70;;;;;;5046245;28;20577;-76
2023/08/11 09:08:40;;;;;;;3.08;1.70;;;27.60;96.70;;;;;;5064413;28;20433;-77
2023/08/11 09:11:09;;;;;;;4.07;1.80;;;27.80;96.70;;;;;;5064982;28;20053;-76
2023/08/11 09:13:38;;;;;;;4.10;1.83;;;27.90;96.70;;;;;;5047238;28;20590;-77
2023/08/11 09:16:07;;;;;;;4.18;1.55;;;28.10;96.70;;;;;;5064155;28;20084;-76
2023/08/11 09:18:36;;;;;;;5.88;1.70;;;28.20;96.70;;;;;;5064340;28;20036;-77
2023/08/11 09:21:05;;;;;;;3.67;1.25;;;28.40;96.70;;;;;;5064545;28;20107;-76
2023/08/11 09:23:33;;;;;;;3.75;1.63;;;28.50;96.70;;;;;;5064453;28;20508;-76
2023/08/11 09:26:03;;;;;;;3.92;1.58;;;28.60;96.70;;;;;;5042453;28;20481;-77
2023/08/11 09:28:32;;;;;;;2.85;1.58;;;28.60;96.70;;;;;;5065155;28;20043;-77
2023/08/11 09:31:00;;;;;;;2.50;1.38;;;28.80;96.70;;;;;;5064594;28;20068;-76
2023/08/11 09:33:30;;;;;;;2.13;1.33;;;28.90;96.70;;;;;;5063667;28;20060;-76
2023/08/11 09:36:00;;;;;;;4.20;1.50;;;29.00;96.70;;;;;;5064250;28;20052;-75
2023/08/11 09:38:29;;;;;;;4.60;1.55;;;29.10;96.70;;;;;;5065998;28;20409;-83
2023/08/11 09:41:01;;;;;;;4.25;1.35;;;29.20;96.70;;;;;;5067127;28;20044;-82
2023/08/11 09:43:32;;;;;;;4.50;1.23;;;29.30;96.70;;;;;;5067589;28;20044;-83
2023/08/11 09:46:01;;;;;;;1.85;1.17;;;29.40;96.70;;;;;;5067226;28;20075;-82
2023/08/11 09:48:31;;;;;;;2.95;1.25;;;29.50;96.70;;;;;;5082986;28;20097;-84
2023/08/11 09:51:00;;;;;;;4.05;1.90;;;29.50;96.70;;;;;;5068614;28;20094;-83
2023/08/11 09:53:29;;;;;;;3.63;1.30;;;29.60;96.70;;;;;;5060046;28;20036;-84
2023/08/11 09:55:59;;;;;;;4.15;1.23;;;29.50;96.70;;;;;;5050687;28;20098;-84
2023/08/11 09:58:32;;;;;;;2.08;1.08;;;29.70;96.70;;;;;;5066139;28;20040;-83
2023/08/11 10:01:01;;;;;;;4.57;1.23;;;29.90;96.70;;;;;;5067830;28;20071;-84
2023/08/11 10:03:47;;;;;;;5.13;1.40;;;30.00;96.70;;;;;;5057771;28;20067;-81
2023/08/11 10:06:21;;;;;;;4.38;1.52;;;30.20;96.70;;;;;;5061959;28;20063;-82
2023/08/11 10:08:51;;;;;;;4.18;1.40;;;30.30;96.70;;;;;;5065107;28;20040;-83
2023/08/11 10:11:24;;;;;;;2.33;1.35;;;30.30;96.70;;;;;;5064497;28;20044;-83
2023/08/11 10:13:56;;;;;;;2.45;1.17;;;30.30;96.70;;;;;;5065880;28;20102;-83
2023/08/11 10:16:25;;;;;;;3.70;1.30;;;30.50;96.70;;;;;;5050263;28;20074;-84
2023/08/11 10:18:57;;;;;;;6.20;1.25;;;30.60;96.70;;;;;;5058635;28;20149;-81
2023/08/11 10:21:26;;;;;;;3.67;1.38;;;30.70;96.70;;;;;;5063836;28;20051;-82
2023/08/11 10:23:54;;;;;;;5.70;1.50;;;30.80;96.70;;;;;;5064845;28;20157;-81
2023/08/11 10:26:23;;;;;;;2.15;1.10;;;30.70;96.70;;;;;;5065001;28;20044;-82
2023/08/11 10:28:52;;;;;;;6.32;2.17;;;30.50;96.70;;;;;;5065030;28;20051;-82
2023/08/11 10:31:24;;;;;;;5.55;1.38;;;30.40;96.70;;;;;;5073893;28;20139;-82
2023/08/11 10:33:54;;;;;;;3.10;1.15;;;30.40;96.70;;;;;;5065068;28;20157;-83
2023/08/11 10:36:23;;;;;;;4.35;1.50;;;30.60;96.70;;;;;;5064165;28;20045;-82
2023/08/11 10:39:00;;;;;;;5.13;1.73;;;30.90;96.70;;;;;;5066496;28;20045;-81
2023/08/11 10:41:29;;;;;;;2.42;1.20;;;31.20;96.70;;;;;;5066207;28;20044;-82
2023/08/11 10:43:58;;;;;;;6.47;1.63;;;31.20;96.70;;;;;;5057613;28;20041;-82
2023/08/11 10:46:29;;;;;;;2.85;1.20;;;31.20;96.70;;;;;;5065425;28;20040;-80
2023/08/11 10:48:59;;;;;;;4.00;1.48;;;31.10;96.70;;;;;;5065941;28;20068;-82
2023/08/11 10:51:29;;;;;;;2.20;1.23;;;31.00;96.70;;;;;;5065776;28;20386;-81
2023/08/11 10:54:01;;;;;;;3.97;1.10;;;30.90;96.70;;;;;;5066161;28;20094;-83
2023/08/11 10:56:32;;;;;;;2.47;1.33;;;31.30;96.70;;;;;;5063688;28;20045;-82
2023/08/11 10:59:23;;;;;;;2.85;1.52;;;31.60;96.70;;;;;;5065559;28;20048;-81
2023/08/11 11:01:54;;;;;;;10.18;1.58;;;31.70;96.70;;;;;;5063291;28;20141;-83
2023/08/11 11:04:26;;;;;;;3.83;1.70;;;31.90;96.70;;;;;;5065526;28;20430;-82
2023/08/11 11:06:55;;;;;;;3.78;1.23;;;32.10;96.70;;;;;;5047361;28;20055;-82
2023/08/11 11:09:23;;;;;;;2.22;1.50;;;32.30;96.70;;;;;;5065253;28;20036;-82
2023/08/11 11:11:52;;;;;;;5.15;1.83;;;32.30;96.70;;;;;;5064004;28;20094;-82
2023/08/11 11:14:21;;;;;;;3.20;1.30;;;32.40;96.70;;;;;;5047296;28;20045;-80
2023/08/11 11:16:51;;;;;;;3.13;1.58;;;32.40;96.70;;;;;;5058141;28;20116;-82
2023/08/11 11:19:23;;;;;;;3.05;1.30;;;32.60;96.70;;;;;;5079498;28;20494;-81
2023/08/11 11:21:52;;;;;;;2.35;1.42;;;32.70;96.70;;;;;;5056115;28;20712;-82
2023/08/11 11:24:21;;;;;;;4.43;1.25;;;32.50;96.70;;;;;;5063635;28;20047;-82
2023/08/11 11:26:49;;;;;;;2.42;1.50;;;32.50;96.70;;;;;;5064337;28;20693;-82
2023/08/11 11:29:28;;;;;;;5.45;1.35;;;32.60;96.70;;;;;;5065078;28;20411;-80
2023/08/11 11:31:59;;;;;;;5.15;1.30;;;32.90;96.70;;;;;;5064921;28;20574;-82
2023/08/11 11:34:30;;;;;;;2.33;1.20;;;33.10;96.70;;;;;;5065203;28;20055;-83
2023/08/11 11:36:59;;;;;;;1.90;1.17;;;33.10;96.70;;;;;;5043797;28;20569;-82
2023/08/11 11:39:28;;;;;;;2.38;1.42;;;33.00;96.70;;;;;;5054855;28;20060;-82
2023/08/11 11:42:06;;;;;;;2.67;1.33;;;32.70;96.70;;;;;;5063376;28;20041;-83
2023/08/11 11:44:36;;;;;;;2.92;1.40;;;32.60;96.70;;;;;;5057319;28;20041;-80
2023/08/11 11:47:05;;;;;;;1.95;1.20;;;32.60;96.70;;;;;;5048636;28;20060;-80
2023/08/11 11:49:35;;;;;;;2.22;1.30;;;33.00;96.70;;;;;;5064810;28;20472;-81
2023/08/11 11:52:06;;;;;;;3.05;1.23;;;33.20;96.70;;;;;;5067104;28;20136;-81
2023/08/11 11:54:35;;;;;;;1.95;1.20;;;33.20;96.70;;;;;;5068423;28;20051;-80
2023/08/11 11:57:05;;;;;;;2.63;1.27;;;33.00;96.70;;;;;;5068444;28;20037;-81
2023/08/11 11:59:41;;;;;;;2.65;1.38;;;32.80;96.70;;;;;;5067022;28;20045;-81
2023/08/11 12:02:12;;;;;;;3.30;1.65;;;32.80;96.70;;;;;;5068555;28;20128;-81
2023/08/11 12:04:43;;;;;;;2.38;1.30;;;33.10;96.70;;;;;;5068079;28;20702;-82
2023/08/11 12:07:30;;;;;;;2.10;1.20;;;33.30;96.70;;;;;;5068349;28;20063;-81
2023/08/11 12:09:58;;;;;;;5.88;1.38;;;33.50;96.70;;;;;;5068129;28;20100;-81
2023/08/11 12:12:28;;;;;;;3.33;1.42;;;33.40;96.70;;;;;;5067454;28;20086;-79
2023/08/11 12:15:01;;;;;;;4.45;1.55;;;33.60;96.70;;;;;;5066815;28;20130;-83
2023/08/11 12:17:31;;;;;;;3.55;1.48;;;33.60;96.70;;;;;;5066859;28;20044;-80
2023/08/11 12:20:01;;;;;;;1.92;1.20;;;33.60;96.70;;;;;;5067121;28;20045;-82
2023/08/11 12:22:30;;;;;;;1.80;1.30;;;33.80;96.70;;;;;;5066818;28;20048;-81
2023/08/11 12:24:58;;;;;;;2.08;1.48;;;33.90;96.70;;;;;;5067268;28;20047;-81
2023/08/11 12:27:28;;;;;;;2.25;1.35;;;34.00;96.70;;;;;;5066802;28;20123;-82
2023/08/11 12:29:57;;;;;;;2.53;1.33;;;33.80;96.70;;;;;;5067004;28;20037;-81
2023/08/11 12:32:26;;;;;;;2.53;1.35;;;33.70;96.70;;;;;;5068262;28;20110;-82
2023/08/11 12:34:54;;;;;;;5.15;1.50;;;33.70;96.70;;;;;;5069060;28;20049;-82
2023/08/11 12:37:26;;;;;;;2.88;1.45;;;33.90;96.70;;;;;;5067128;28;20139;-81
2023/08/11 12:39:54;;;;;;;2.88;1.50;;;33.80;96.70;;;;;;5068222;28;20109;-80
2023/08/11 12:42:22;;;;;;;3.15;1.45;;;33.80;96.70;;;;;;5060102;28;20041;-81
2023/08/11 12:44:51;;;;;;;3.85;1.40;;;33.70;96.70;;;;;;5067088;28;20048;-82
2023/08/11 12:47:19;;;;;;;2.20;1.27;;;33.60;96.70;;;;;;5062869;28;20155;-83
2023/08/11 12:49:47;;;;;;;2.42;1.73;;;33.90;96.70;;;;;;5057293;28;20512;-81
2023/08/11 12:52:16;;;;;;;2.22;1.30;;;34.00;96.70;;;;;;5067583;28;20127;-82
2023/08/11 12:54:46;;;;;;;2.78;1.40;;;34.10;96.70;;;;;;5059836;28;20055;-82
2023/08/11 12:57:14;;;;;;;2.03;1.45;;;34.20;96.70;;;;;;5058970;28;20044;-82